createdAt,value
2023-03-29T00:01:11.518Z,78.90
2023-03-29T00:03:59.769Z,79.00
2023-03-29T00:06:27.874Z,78.90
2023-03-29T00:08:54.571Z,79.00
2023-03-29T00:11:21.354Z,79.00
2023-03-29T00:13:49.110Z,79.00
2023-03-29T00:16:15.908Z,79.90
2023-03-29T00:18:42.809Z,79.10
2023-03-29T00:21:09.541Z,80.00
2023-03-29T00:23:36.203Z,79.30
2023-03-29T00:26:03.845Z,79.40
2023-03-29T00:28:31.910Z,79.50
2023-03-29T00:31:09.567Z,79.50
2023-03-29T00:33:36.271Z,79.70
2023-03-29T00:36:03.349Z,79.60
2023-03-29T00:38:30.689Z,79.70
2023-03-29T00:40:57.403Z,79.70
2023-03-29T00:43:24.135Z,79.70
2023-03-29T00:45:50.908Z,79.90
2023-03-29T00:48:19.965Z,79.90
2023-03-29T00:50:58.042Z,80.00
2023-03-29T00:53:47.676Z,80.10
2023-03-29T00:56:18.489Z,80.20
2023-03-29T00:59:10.253Z,80.10
2023-03-29T01:01:40.497Z,80.20
2023-03-29T01:04:09.953Z,80.20
2023-03-29T01:06:36.772Z,80.30
2023-03-29T01:09:05.016Z,80.30
2023-03-29T01:11:43.070Z,80.40
2023-03-29T01:14:17.919Z,80.50
2023-03-29T01:16:44.792Z,80.60
2023-03-29T01:19:13.570Z,80.50
2023-03-29T01:21:45.142Z,80.60
2023-03-29T01:24:37.643Z,80.70
2023-03-29T01:27:32.954Z,80.80
2023-03-29T01:30:05.941Z,80.90
2023-03-29T01:32:38.812Z,80.80
2023-03-29T01:35:09.989Z,80.90
2023-03-29T01:37:41.397Z,80.90
2023-03-29T01:40:08.510Z,80.80
2023-03-29T01:42:46.567Z,80.90
2023-03-29T01:45:19.213Z,81.10
2023-03-29T01:48:01.019Z,81.00
2023-03-29T01:50:30.713Z,81.10
2023-03-29T01:52:59.869Z,81.20
2023-03-29T01:55:32.642Z,81.20
2023-03-29T01:57:59.724Z,81.30
2023-03-29T02:00:27.658Z,81.10
2023-03-29T02:02:57.266Z,81.20
2023-03-29T02:05:24.090Z,81.20
2023-03-29T02:07:50.790Z,81.20
2023-03-29T02:10:17.512Z,81.20
2023-03-29T02:12:44.232Z,81.30
2023-03-29T02:15:15.333Z,81.40
2023-03-29T02:17:42.126Z,81.40
2023-03-29T02:20:13.444Z,81.40
2023-03-29T02:23:04.403Z,81.50
2023-03-29T02:25:31.192Z,81.70
2023-03-29T02:27:57.889Z,81.50
2023-03-29T02:30:25.782Z,81.50
2023-03-29T02:33:24.834Z,81.60
2023-03-29T02:36:27.803Z,81.80
2023-03-29T02:38:54.504Z,81.80
2023-03-29T02:41:22.024Z,81.70
2023-03-29T02:43:48.729Z,81.70
2023-03-29T02:46:17.408Z,81.90
2023-03-29T02:48:44.280Z,81.90
2023-03-29T02:51:20.675Z,82.00
2023-03-29T02:54:05.254Z,82.10
2023-03-29T02:56:41.716Z,82.20
2023-03-29T02:59:08.546Z,82.30
2023-03-29T03:01:35.321Z,82.20
2023-03-29T03:04:02.233Z,82.30
2023-03-29T03:06:29.059Z,82.30
2023-03-29T03:08:55.797Z,82.30
2023-03-29T03:11:22.574Z,82.30
2023-03-29T03:13:49.358Z,82.30
2023-03-29T03:16:16.310Z,82.50
2023-03-29T03:18:43.033Z,82.50
2023-03-29T03:21:09.765Z,82.70
2023-03-29T03:23:36.442Z,82.70
2023-03-29T03:26:03.197Z,82.80
2023-03-29T03:28:29.850Z,82.70
2023-03-29T03:30:56.712Z,82.80
2023-03-29T03:33:23.457Z,82.80
2023-03-29T03:35:50.271Z,82.90
2023-03-29T03:38:16.982Z,82.90
2023-03-29T03:40:43.801Z,82.90
2023-03-29T03:43:10.596Z,82.90
2023-03-29T03:45:37.311Z,82.90
2023-03-29T03:48:04.111Z,82.90
2023-03-29T03:50:30.821Z,82.90
2023-03-29T03:52:57.611Z,82.80
2023-03-29T03:55:24.338Z,82.90
2023-03-29T03:57:51.065Z,82.90
2023-03-29T04:00:17.894Z,82.90
2023-03-29T04:02:45.452Z,82.90
2023-03-29T04:05:12.235Z,83.10
2023-03-29T04:07:39.058Z,83.10
2023-03-29T04:10:06.274Z,83.10
2023-03-29T04:12:32.973Z,83.10
2023-03-29T04:14:59.687Z,83.10
2023-03-29T04:17:26.427Z,83.20
2023-03-29T04:19:53.104Z,83.20
2023-03-29T04:22:19.801Z,83.30
2023-03-29T04:24:46.480Z,83.30
2023-03-29T04:27:13.168Z,83.40
2023-03-29T04:29:39.881Z,83.30
2023-03-29T04:32:06.650Z,83.30
2023-03-29T04:34:53.676Z,83.40
2023-03-29T04:37:20.378Z,83.50
2023-03-29T04:40:09.043Z,83.60
2023-03-29T04:42:47.581Z,83.70
2023-03-29T04:45:14.596Z,83.80
2023-03-29T04:48:01.663Z,84.50
2023-03-29T04:50:51.876Z,83.90
2023-03-29T04:53:30.496Z,83.90
2023-03-29T05:11:49.678Z,84.00
2023-03-29T05:22:51.304Z,84.00
2023-03-29T05:25:18.010Z,84.20
2023-03-29T05:27:44.761Z,84.20
2023-03-29T05:30:13.206Z,84.20
2023-03-29T05:32:45.726Z,84.30
2023-03-29T05:35:12.498Z,84.30
2023-03-29T05:37:39.236Z,84.30
2023-03-29T05:40:12.265Z,84.40
2023-03-29T05:42:38.964Z,85.20
2023-03-29T05:45:14.502Z,84.40
2023-03-29T05:47:59.181Z,84.60
2023-03-29T05:50:25.945Z,84.40
2023-03-29T05:52:56.250Z,84.50
2023-03-29T05:55:22.960Z,84.50
2023-03-29T05:57:55.542Z,85.20
2023-03-29T06:00:22.441Z,84.60
2023-03-29T06:05:58.143Z,84.50
2023-03-29T06:08:25.412Z,84.60
2023-03-29T06:11:05.476Z,84.60
2023-03-29T06:13:32.686Z,84.50
2023-03-29T06:15:59.696Z,84.50
2023-03-29T06:19:09.971Z,84.50
2023-03-29T06:21:59.666Z,84.70
2023-03-29T06:24:26.408Z,84.50
2023-03-29T06:26:53.193Z,84.50
2023-03-29T06:29:35.000Z,84.50
2023-03-29T06:32:01.687Z,84.60
2023-03-29T06:34:48.689Z,84.50
2023-03-29T06:37:15.375Z,84.60
2023-03-29T06:40:24.799Z,84.40
2023-03-29T06:43:17.715Z,84.60
2023-03-29T06:45:44.787Z,84.50
2023-03-29T06:48:12.172Z,84.30
2023-03-29T06:50:38.910Z,84.30
2023-03-29T06:53:11.444Z,84.30
2023-03-29T06:55:38.146Z,84.40
2023-03-29T06:58:04.906Z,84.40
2023-03-29T07:00:31.611Z,84.30
2023-03-29T07:02:58.563Z,84.20
2023-03-29T07:05:28.535Z,84.30
2023-03-29T07:07:55.401Z,84.30
2023-03-29T07:10:31.959Z,84.20
2023-03-29T07:12:59.483Z,84.30
2023-03-29T07:15:26.408Z,84.20
2023-03-29T07:17:53.280Z,84.20
2023-03-29T07:20:20.366Z,84.30
2023-03-29T07:22:47.107Z,84.40
2023-03-29T07:25:14.108Z,84.40
2023-03-29T07:27:41.160Z,84.40
2023-03-29T07:30:09.104Z,84.50
2023-03-29T07:32:35.891Z,84.50
2023-03-29T07:35:03.506Z,84.50
2023-03-29T07:37:30.212Z,84.60
2023-03-29T07:39:56.901Z,84.60
2023-03-29T07:42:23.736Z,84.70
2023-03-29T07:44:50.427Z,84.60
2023-03-29T07:47:17.178Z,84.70
2023-03-29T07:49:43.912Z,84.70
2023-03-29T07:52:10.634Z,84.70
2023-03-29T07:54:37.631Z,84.60
2023-03-29T07:57:04.471Z,84.60
2023-03-29T07:59:31.227Z,84.60
2023-03-29T08:01:57.895Z,84.60
2023-03-29T08:04:24.754Z,84.60
2023-03-29T08:06:51.655Z,84.50
2023-03-29T08:09:18.403Z,84.50
2023-03-29T08:11:45.170Z,84.50
2023-03-29T08:14:11.908Z,84.40
2023-03-29T08:16:38.610Z,84.30
2023-03-29T08:19:05.396Z,84.30
2023-03-29T08:21:32.103Z,84.20
2023-03-29T08:23:58.882Z,84.20
2023-03-29T08:26:25.594Z,84.20
2023-03-29T08:28:52.290Z,84.30
2023-03-29T08:31:19.048Z,84.20
2023-03-29T08:33:45.799Z,84.10
2023-03-29T08:36:12.504Z,84.00
2023-03-29T08:38:39.214Z,84.20
2023-03-29T08:41:48.359Z,84.20
2023-03-29T08:44:37.302Z,84.30
2023-03-29T08:47:33.683Z,84.40
2023-03-29T08:50:00.416Z,84.40
2023-03-29T08:52:46.827Z,84.40
2023-03-29T08:55:43.416Z,84.50
2023-03-29T08:58:16.044Z,84.50
2023-03-29T09:00:57.231Z,84.60
2023-03-29T09:03:38.647Z,84.60
2023-03-29T09:06:07.316Z,84.60
2023-03-29T09:08:48.397Z,84.70
2023-03-29T09:11:24.382Z,84.70
2023-03-29T09:14:13.583Z,84.60
2023-03-29T09:17:00.162Z,84.50
2023-03-29T09:19:30.041Z,84.70
2023-03-29T09:22:18.719Z,84.70
2023-03-29T09:25:13.984Z,84.80
2023-03-29T09:27:46.705Z,84.80
2023-03-29T09:30:29.419Z,84.80
2023-03-29T09:32:58.103Z,84.70
2023-03-29T09:35:36.418Z,84.60
2023-03-29T09:38:03.308Z,84.50
2023-03-29T09:40:38.004Z,84.50
2023-03-29T09:43:04.843Z,84.60
2023-03-29T09:45:31.682Z,84.60
2023-03-29T09:48:04.355Z,84.70
2023-03-29T09:50:42.058Z,84.70
2023-03-29T09:53:09.325Z,84.70
2023-03-29T09:55:36.067Z,84.70
2023-03-29T09:58:12.113Z,84.70
2023-03-29T10:00:39.246Z,84.70
2023-03-29T10:17:41.311Z,84.70
2023-03-29T10:20:12.968Z,84.70
2023-03-29T10:22:39.702Z,84.80
2023-03-29T10:25:13.118Z,84.90
2023-03-29T10:27:41.088Z,84.90
2023-03-29T10:30:09.841Z,84.80
2023-03-29T10:32:37.032Z,84.90
2023-03-29T10:35:34.582Z,84.90
2023-03-29T10:38:04.063Z,84.90
2023-03-29T10:40:34.461Z,85.10
2023-03-29T10:43:22.252Z,85.10
2023-03-29T10:45:56.531Z,85.20
2023-03-29T10:48:30.181Z,85.30
2023-03-29T10:51:03.515Z,85.40
2023-03-29T10:53:31.856Z,85.40
2023-03-29T10:56:22.908Z,85.40
2023-03-29T10:59:06.015Z,85.60
2023-03-29T11:01:50.104Z,85.70
2023-03-29T11:04:37.443Z,85.40
2023-03-29T11:07:04.224Z,85.50
2023-03-29T11:09:59.315Z,85.60
2023-03-29T11:12:40.922Z,85.70
2023-03-29T11:15:52.136Z,85.70
2023-03-29T11:18:39.687Z,85.70
2023-03-29T11:21:30.629Z,86.60
2023-03-29T11:24:28.719Z,85.90
2023-03-29T11:27:20.909Z,86.00
2023-03-29T11:30:08.668Z,86.10
2023-03-29T11:32:46.169Z,86.20
2023-03-29T11:35:28.626Z,86.10
2023-03-29T11:38:04.018Z,86.20
2023-03-29T11:40:54.830Z,86.10
2023-03-29T11:43:24.599Z,86.20
2023-03-29T11:45:56.988Z,86.10
2023-03-29T11:48:33.096Z,86.10
2023-03-29T11:51:13.882Z,86.10
2023-03-29T11:53:49.551Z,86.20
2023-03-29T11:56:22.486Z,86.10
2023-03-29T11:58:52.407Z,86.20
2023-03-29T12:01:27.654Z,86.10
2023-03-29T12:03:56.870Z,86.10
2023-03-29T12:06:38.512Z,86.20
2023-03-29T12:09:22.395Z,86.30
2023-03-29T12:11:59.884Z,86.30
2023-03-29T12:14:30.499Z,86.20
2023-03-29T12:16:58.243Z,86.40
2023-03-29T12:19:26.448Z,86.40
2023-03-29T12:21:53.123Z,86.50
2023-03-29T12:24:19.861Z,86.40
2023-03-29T12:27:22.548Z,86.50
2023-03-29T12:30:23.014Z,86.40
2023-03-29T12:33:17.712Z,86.00
2023-03-29T12:35:56.570Z,85.70
2023-03-29T12:38:29.330Z,86.10
2023-03-29T12:40:58.887Z,84.90
2023-03-29T12:43:41.858Z,84.70
2023-03-29T12:46:09.135Z,84.70
2023-03-29T12:48:39.515Z,84.50
2023-03-29T12:51:14.110Z,84.70
2023-03-29T12:54:26.774Z,84.90
2023-03-29T12:56:57.712Z,84.90
2023-03-29T12:59:34.487Z,85.00
2023-03-29T13:02:14.006Z,85.10
2023-03-29T13:04:44.036Z,85.00
2023-03-29T13:07:31.512Z,85.50
2023-03-29T13:10:25.336Z,85.00
2023-03-29T13:12:52.021Z,85.10
2023-03-29T13:15:18.767Z,85.10
2023-03-29T13:18:11.703Z,85.10
2023-03-29T13:20:44.803Z,85.10
2023-03-29T13:23:27.962Z,85.20
2023-03-29T13:26:03.774Z,85.00
2023-03-29T13:28:35.080Z,84.90
2023-03-29T13:31:06.532Z,84.70
2023-03-29T13:33:52.700Z,84.50
2023-03-29T13:36:33.113Z,84.30
2023-03-29T13:39:02.682Z,84.20
2023-03-29T13:41:38.695Z,84.20
2023-03-29T13:44:17.626Z,84.90
2023-03-29T13:46:44.806Z,84.20
2023-03-29T13:49:24.286Z,84.30
2023-03-29T13:51:54.111Z,84.30
2023-03-29T13:54:26.482Z,84.00
2023-03-29T13:57:36.620Z,84.40
2023-03-29T14:00:15.095Z,83.50
2023-03-29T14:02:46.575Z,83.30
2023-03-29T14:05:26.134Z,83.20
2023-03-29T14:07:53.593Z,82.80
2023-03-29T14:10:34.892Z,82.50
2023-03-29T14:13:04.217Z,81.90
2023-03-29T14:15:52.822Z,81.60
2023-03-29T14:18:23.207Z,81.00
2023-03-29T14:20:51.330Z,80.40
2023-03-29T14:23:20.535Z,79.90
2023-03-29T14:25:47.310Z,78.90
2023-03-29T14:28:26.582Z,78.40
2023-03-29T14:30:53.765Z,77.90
2023-03-29T14:33:31.382Z,78.00
2023-03-29T14:35:59.198Z,78.20
2023-03-29T14:38:26.442Z,78.50
2023-03-29T14:40:53.496Z,78.50
2023-03-29T14:43:21.501Z,78.40
2023-03-29T14:45:48.749Z,78.30
2023-03-29T14:48:16.111Z,78.00
2023-03-29T14:50:43.984Z,77.70
2023-03-29T14:53:19.575Z,77.50
2023-03-29T14:55:50.690Z,77.50
2023-03-29T14:58:21.308Z,77.50
2023-03-29T15:00:49.414Z,76.90
2023-03-29T15:03:16.371Z,76.60
2023-03-29T15:05:48.384Z,77.10
2023-03-29T15:08:36.098Z,76.10
2023-03-29T15:11:02.918Z,76.00
2023-03-29T15:13:29.652Z,76.10
2023-03-29T15:15:58.722Z,76.30
2023-03-29T15:18:31.404Z,76.40
2023-03-29T15:20:58.607Z,76.30
2023-03-29T15:23:25.502Z,76.50
2023-03-29T15:25:55.190Z,76.40
2023-03-29T15:28:24.906Z,76.20
2023-03-29T15:30:57.500Z,76.20
2023-03-29T15:33:35.666Z,76.20
2023-03-29T15:36:02.896Z,76.10
2023-03-29T15:38:36.743Z,76.00
2023-03-29T15:41:10.474Z,75.90
2023-03-29T15:43:37.439Z,75.70
2023-03-29T15:46:04.941Z,75.70
2023-03-29T15:48:32.105Z,75.50
2023-03-29T15:51:07.225Z,75.50
2023-03-29T15:53:34.250Z,75.30
2023-03-29T15:56:02.464Z,75.50
2023-03-29T15:58:34.898Z,75.60
2023-03-29T16:01:22.430Z,75.60
2023-03-29T16:03:51.763Z,75.70
2023-03-29T16:06:18.549Z,76.00
2023-03-29T16:08:45.401Z,76.00
2023-03-29T16:11:12.191Z,76.10
2023-03-29T16:13:39.304Z,76.20
2023-03-29T16:16:07.082Z,76.20
2023-03-29T16:18:34.241Z,76.40
2023-03-29T16:21:00.960Z,76.30
2023-03-29T16:23:27.686Z,76.30
2023-03-29T16:25:54.572Z,76.30
2023-03-29T16:28:21.334Z,76.30
2023-03-29T16:30:48.568Z,76.30
2023-03-29T16:33:15.448Z,76.30
2023-03-29T16:35:42.335Z,76.30
2023-03-29T16:38:09.116Z,76.20
2023-03-29T16:40:36.283Z,76.10
2023-03-29T16:43:03.017Z,76.10
2023-03-29T16:45:29.871Z,76.00
2023-03-29T16:47:56.796Z,76.00
2023-03-29T16:50:23.767Z,76.00
2023-03-29T16:52:50.581Z,76.00
2023-03-29T16:55:17.513Z,76.10
2023-03-29T16:57:44.639Z,76.20
2023-03-29T17:00:12.233Z,76.20
2023-03-29T17:02:39.121Z,76.30
2023-03-29T17:05:06.512Z,76.30
2023-03-29T17:07:33.495Z,76.30
2023-03-29T17:10:00.290Z,76.30
2023-03-29T17:12:29.319Z,76.50
2023-03-29T17:14:56.187Z,76.50
2023-03-29T17:17:23.134Z,76.50
2023-03-29T17:19:49.894Z,76.50
2023-03-29T17:22:16.593Z,76.50
2023-03-29T17:24:43.566Z,76.50
2023-03-29T17:27:10.250Z,76.50
2023-03-29T17:29:36.999Z,76.60
2023-03-29T17:32:03.750Z,76.80
2023-03-29T17:34:30.467Z,76.70
2023-03-29T17:36:57.166Z,76.90
2023-03-29T17:39:23.931Z,76.90
2023-03-29T17:41:50.667Z,76.90
2023-03-29T17:44:17.437Z,77.10
2023-03-29T17:46:44.176Z,77.10
2023-03-29T17:49:10.982Z,77.20
2023-03-29T17:51:37.682Z,77.40
2023-03-29T17:54:04.468Z,77.60
2023-03-29T17:56:31.429Z,77.70
2023-03-29T17:58:58.204Z,77.90
2023-03-29T18:01:25.054Z,78.00
2023-03-29T18:03:51.818Z,78.20
2023-03-29T18:06:18.544Z,78.50
2023-03-29T18:08:45.496Z,78.70
2023-03-29T18:11:16.681Z,78.90
2023-03-29T18:13:43.392Z,78.90
2023-03-29T18:16:10.589Z,79.10
2023-03-29T18:18:37.735Z,79.30
2023-03-29T18:21:04.652Z,79.40
2023-03-29T18:23:31.364Z,79.50
2023-03-29T18:26:04.442Z,79.60
2023-03-29T18:28:31.547Z,79.90
2023-03-29T18:30:58.455Z,79.90
2023-03-29T18:33:26.550Z,79.90
2023-03-29T18:35:53.301Z,80.00
2023-03-29T18:38:21.214Z,80.20
2023-03-29T18:40:48.657Z,80.40
2023-03-29T18:43:15.626Z,80.60
2023-03-29T18:45:43.685Z,81.20
2023-03-29T18:48:10.940Z,80.80
2023-03-29T18:50:37.690Z,81.00
2023-03-29T18:53:04.640Z,81.10
2023-03-29T18:55:31.573Z,81.30
2023-03-29T18:57:58.550Z,81.30
2023-03-29T19:00:25.349Z,81.40
2023-03-29T19:02:52.233Z,81.50
2023-03-29T19:05:19.045Z,81.60
2023-03-29T19:07:45.769Z,81.80
2023-03-29T19:10:12.500Z,81.90
2023-03-29T19:12:39.311Z,82.00
2023-03-29T19:15:06.633Z,82.10
2023-03-29T19:17:33.392Z,82.20
2023-03-29T19:20:00.183Z,82.20
2023-03-29T19:22:26.963Z,82.40
2023-03-29T19:24:53.649Z,82.50
2023-03-29T19:27:20.369Z,82.60
2023-03-29T19:29:47.157Z,82.70
2023-03-29T19:32:13.878Z,82.80
2023-03-29T19:34:40.631Z,82.90
2023-03-29T19:37:07.340Z,82.90
2023-03-29T19:39:34.126Z,82.90
2023-03-29T19:42:00.830Z,83.00
2023-03-29T19:44:27.563Z,83.10
2023-03-29T19:46:54.482Z,83.30
2023-03-29T19:49:21.230Z,83.30
2023-03-29T19:51:47.990Z,83.40
2023-03-29T19:54:14.699Z,83.50
2023-03-29T19:56:41.674Z,83.60
2023-03-29T19:59:08.419Z,83.70
2023-03-29T20:01:35.310Z,83.70
2023-03-29T20:04:02.123Z,83.80
2023-03-29T20:06:28.899Z,84.00
2023-03-29T20:08:55.554Z,84.00
2023-03-29T20:11:22.254Z,84.10
2023-03-29T20:13:48.991Z,84.20
2023-03-29T20:16:16.444Z,84.20
2023-03-29T20:18:43.530Z,84.70
2023-03-29T20:21:10.457Z,84.30
2023-03-29T20:23:37.441Z,84.40
2023-03-29T20:26:04.226Z,84.50
2023-03-29T20:28:30.929Z,84.50
2023-03-29T20:31:05.226Z,84.60
2023-03-29T20:33:32.106Z,84.80
2023-03-29T20:35:58.980Z,84.70
2023-03-29T20:38:25.854Z,84.70
2023-03-29T20:40:53.189Z,84.80
2023-03-29T20:43:19.877Z,84.90
2023-03-29T20:45:52.551Z,84.90
2023-03-29T20:48:21.545Z,85.00
2023-03-29T20:50:48.282Z,85.10
2023-03-29T20:53:15.481Z,85.20
2023-03-29T20:55:42.274Z,85.20
2023-03-29T20:58:09.146Z,85.30
2023-03-29T21:00:36.103Z,85.40
2023-03-29T21:03:02.890Z,85.40
2023-03-29T21:05:33.371Z,85.50
2023-03-29T21:08:00.156Z,85.60
2023-03-29T21:10:27.250Z,85.60
2023-03-29T21:12:54.211Z,85.70
2023-03-29T21:15:21.008Z,85.70
2023-03-29T21:17:47.873Z,85.80
2023-03-29T21:20:14.907Z,85.90
2023-03-29T21:22:41.894Z,85.90
2023-03-29T21:25:09.844Z,85.90
2023-03-29T21:27:37.255Z,85.90
2023-03-29T21:30:05.162Z,86.10
2023-03-29T21:32:31.916Z,86.10
2023-03-29T21:34:58.732Z,86.10
2023-03-29T21:37:25.562Z,86.20
2023-03-29T21:39:52.779Z,86.20
2023-03-29T21:42:19.457Z,86.30
2023-03-29T21:44:46.278Z,86.30
2023-03-29T21:47:13.012Z,86.40
2023-03-29T21:49:39.744Z,86.50
2023-03-29T21:52:06.476Z,86.50
2023-03-29T21:54:33.324Z,86.60
2023-03-29T21:57:00.090Z,86.60
2023-03-29T21:59:26.910Z,86.60
2023-03-29T22:01:54.445Z,86.60
2023-03-29T22:04:35.401Z,86.70
2023-03-29T22:07:03.589Z,86.70
2023-03-29T22:09:30.387Z,86.70
2023-03-29T22:11:57.140Z,86.60
2023-03-29T22:14:23.867Z,86.70
2023-03-29T22:16:50.812Z,86.70
2023-03-29T22:19:17.645Z,86.80
2023-03-29T22:21:44.397Z,86.90
2023-03-29T22:24:11.290Z,86.90
2023-03-29T22:26:37.965Z,86.80
2023-03-29T22:29:04.724Z,86.80
2023-03-29T22:31:32.184Z,86.90
2023-03-29T22:33:58.953Z,86.90
2023-03-29T22:36:27.485Z,86.90
2023-03-29T22:38:54.482Z,86.90
2023-03-29T22:41:21.952Z,86.90
2023-03-29T22:43:48.720Z,86.90
2023-03-29T22:46:15.691Z,87.00
2023-03-29T22:48:42.536Z,87.00
2023-03-29T22:51:09.214Z,86.90
2023-03-29T22:53:36.058Z,87.10
2023-03-29T22:56:03.282Z,87.10
2023-03-29T22:58:30.083Z,87.20
2023-03-29T23:00:57.190Z,87.20
2023-03-29T23:03:24.019Z,87.30
2023-03-29T23:05:51.880Z,87.20
2023-03-29T23:08:18.656Z,87.20
2023-03-29T23:10:46.294Z,87.20
2023-03-29T23:13:13.196Z,87.40
2023-03-29T23:15:44.900Z,87.30
2023-03-29T23:18:11.637Z,87.40
2023-03-29T23:20:38.754Z,87.30
2023-03-29T23:23:05.700Z,87.40
2023-03-29T23:25:32.645Z,87.40
2023-03-29T23:27:59.321Z,87.40
2023-03-29T23:30:26.007Z,87.40
2023-03-29T23:32:52.922Z,87.40
2023-03-29T23:35:19.949Z,87.40
2023-03-29T23:37:46.897Z,87.40
2023-03-29T23:40:14.147Z,87.40
2023-03-29T23:42:41.688Z,87.60
2023-03-29T23:45:09.604Z,87.40
2023-03-29T23:47:36.375Z,87.40
2023-03-29T23:50:03.488Z,87.40
2023-03-29T23:52:30.665Z,87.40
2023-03-29T23:54:57.450Z,87.40
2023-03-29T23:57:24.308Z,87.50
2023-03-29T23:59:51.042Z,87.50
